This is the latest recevied weather packets stored in our database for station/object GW7204. If no packets are shown the sender has not sent any weather packets the latest 10 day(s).
| Time | Temp. | Humidity | Pressure | Rain* | Wind** | Luminosity | Snow |
|---|---|---|---|---|---|---|---|
| 1777431256 | 14.44° C | 98% | 1013.8 hPa | 27.18 mm | - | - | - |
| 1777430213 | 14.44° C | 97% | 1013.8 hPa | 27.18 mm | - | - | - |
| 1777428392 | 15° C | 95% | 1013.5 hPa | 27.18 mm | - | - | - |
| 1777421909 | 20° C | 71% | 1013.2 hPa | 27.18 mm | - | - | - |
| 1777420098 | 21.67° C | 65% | 1013.2 hPa | 27.18 mm | - | - | - |
| 1777418667 | 22.78° C | 60% | 1011.8 hPa | 27.18 mm | - | - | - |
| 1777417608 | 23.33° C | 58% | 1012.1 hPa | 27.18 mm | - | - | - |
| 1777417237 | 23.89° C | 58% | 1012.1 hPa | 27.18 mm | - | - | - |
| 1777406074 | 24.44° C | 60% | 1013.2 hPa | 27.18 mm | - | - | - |
| 1777400331 | 22.22° C | 74% | 1013.8 hPa | 27.18 mm | - | - | - |
| 1777399601 | 22.78° C | 75% | 1013.8 hPa | 27.18 mm | - | - | - |
| 1777398136 | 21.11° C | 82% | 1014.2 hPa | 27.18 mm | - | - | - |
| 1777395648 | 20° C | 85% | 1014.2 hPa | 27.18 mm | - | - | - |
| 1777394924 | 19.44° C | 86% | 1014.2 hPa | 27.18 mm | - | - | - |
| 1777394204 | 18.89° C | 88% | 1014.2 hPa | 27.18 mm | - | - | - |
| 1777392753 | 18.89° C | 93% | 1014.2 hPa | 27.18 mm | - | - | - |
| 1777388784 | 16.67° C | 99% | 1013.8 hPa | 27.18 mm | - | - | - |
| 1777388451 | 16.67° C | 99% | 1013.8 hPa | 27.18 mm | - | - | - |
| 1777382664 | 15.56° C | 99% | 1012.8 hPa | 27.18 mm | - | - | - |
| 1777380158 | 14.44° C | 99% | 1012.5 hPa | 26.92 mm | - | - | - |
| 1777379789 | 14.44° C | 99% | 1012.5 hPa | 26.92 mm | - | - | - |
| 1777379443 | 14.44° C | 99% | 1012.5 hPa | 26.92 mm | - | - | - |
| 1777377651 | 13.33° C | 99% | 1012.1 hPa | 26.92 mm | - | - | - |
| 1777376930 | 13.33° C | 99% | 1012.5 hPa | 26.92 mm | - | - | - |
| 1777374051 | 12.78° C | 99% | 1011.5 hPa | 26.92 mm | - | - | - |
* Rain since midnight (hover to see other rain measurements)
** Current wind speed in m/s (hover to see current wind gust speed)